Time,TemperatureF,DewpointF,PressureIn,WindDirection,WindDirectionDegrees,WindSpeedMPH,WindSpeedGustMPH,Humidity,HourlyPrecipIn,Conditions,Clouds,dailyrainin,SoftwareType,DateUTC
2013-01-13 00:05:00,65.0,65.0,29.63,SSW,202,9.0,16.0,100,0.03,,,0.00,Weather View 32 v70,2013-01-13 05:05:00,
2013-01-13 00:10:00,65.0,65.0,29.62,South,180,9.0,17.0,100,0.03,,,0.00,Weather View 32 v70,2013-01-13 05:10:00,
2013-01-13 00:15:00,65.0,65.0,29.62,SE,135,5.0,17.0,100,0.03,,,0.00,Weather View 32 v70,2013-01-13 05:15:00,
2013-01-13 00:20:00,65.0,65.0,29.61,South,180,4.0,17.0,100,0.03,,,0.00,Weather View 32 v70,2013-01-13 05:20:00,
2013-01-13 00:25:00,65.0,65.0,29.61,SSE,157,8.0,17.0,100,0.03,,,0.00,Weather View 32 v70,2013-01-13 05:25:00,
2013-01-13 00:30:00,65.0,65.0,29.59,ENE,67,1.0,20.0,100,0.03,,,0.00,Weather View 32 v70,2013-01-13 05:30:00,
2013-01-13 00:35:00,65.0,65.0,29.59,South,180,2.0,20.0,100,0.03,,,0.00,Weather View 32 v70,2013-01-13 05:35:00,
2013-01-13 00:40:00,66.0,66.0,29.58,SE,135,8.0,20.0,100,0.03,,,0.00,Weather View 32 v70,2013-01-13 05:40:00,
2013-01-13 00:45:00,66.0,66.0,29.58,SE,135,5.0,20.0,100,0.01,,,0.00,Weather View 32 v70,2013-01-13 05:45:00,
2013-01-13 00:55:00,66.0,66.0,29.57,SW,225,3.0,23.0,100,0.00,,,0.00,Weather View 32 v70,2013-01-13 05:55:00,
2013-01-13 01:00:00,65.0,65.0,29.62,WSW,247,7.0,23.0,100,0.07,,,0.07,Weather View 32 v70,2013-01-13 06:00:00,
2013-01-13 01:05:00,63.0,63.0,29.63,WSW,247,7.0,23.0,100,0.14,,,0.14,Weather View 32 v70,2013-01-13 06:05:00,
2013-01-13 01:10:00,62.0,62.0,29.64,SSW,202,5.0,23.0,100,0.16,,,0.16,Weather View 32 v70,2013-01-13 06:10:00,
2013-01-13 01:15:00,61.0,61.0,29.65,WSW,247,7.0,23.0,100,0.18,,,0.18,Weather View 32 v70,2013-01-13 06:15:00,
2013-01-13 01:20:00,61.0,61.0,29.65,West,270,7.0,23.0,100,0.18,,,0.18,Weather View 32 v70,2013-01-13 06:20:00,
2013-01-13 01:25:00,60.0,60.0,29.66,South,180,5.0,23.0,100,0.19,,,0.19,Weather View 32 v70,2013-01-13 06:25:00,
2013-01-13 01:35:00,58.0,58.0,29.67,SW,225,3.0,23.0,100,0.21,,,0.21,Weather View 32 v70,2013-01-13 06:35:00,
2013-01-13 01:40:00,57.0,57.0,29.68,West,270,1.0,23.0,100,0.22,,,0.22,Weather View 32 v70,2013-01-13 06:40:00,
2013-01-13 01:45:00,57.0,57.0,29.67,SW,225,4.0,23.0,100,0.23,,,0.23,Weather View 32 v70,2013-01-13 06:45:00,
2013-01-13 01:50:00,57.0,57.0,29.67,West,270,7.0,23.0,100,0.23,,,0.23,Weather View 32 v70,2013-01-13 06:50:00,
2013-01-13 01:55:00,56.0,56.0,29.69,SSW,202,4.0,23.0,100,0.25,,,0.25,Weather View 32 v70,2013-01-13 06:55:00,
2013-01-13 02:00:00,56.0,56.0,29.69,West,270,1.0,23.0,100,0.20,,,0.27,Weather View 32 v70,2013-01-13 07:00:00,
2013-01-13 02:05:00,56.0,56.0,29.69,West,270,3.0,17.0,100,0.14,,,0.28,Weather View 32 v70,2013-01-13 07:05:00,
2013-01-13 02:10:00,56.0,56.0,29.68,NW,315,1.0,16.0,100,0.14,,,0.30,Weather View 32 v70,2013-01-13 07:10:00,
2013-01-13 02:15:00,56.0,56.0,29.67,NW,315,1.0,16.0,100,0.13,,,0.31,Weather View 32 v70,2013-01-13 07:15:00,
2013-01-13 02:25:00,56.0,56.0,29.67,NW,315,0.0,15.0,100,0.14,,,0.33,Weather View 32 v70,2013-01-13 07:25:00,
2013-01-13 02:30:00,56.0,56.0,29.66,NW,315,0.0,15.0,100,0.15,,,0.35,Weather View 32 v70,2013-01-13 07:30:00,
2013-01-13 02:35:00,55.0,55.0,29.67,NW,315,0.0,15.0,100,0.14,,,0.35,Weather View 32 v70,2013-01-13 07:35:00,
2013-01-13 02:40:00,55.0,55.0,29.68,SE,135,3.0,12.0,100,0.14,,,0.36,Weather View 32 v70,2013-01-13 07:40:00,
2013-01-13 02:45:00,55.0,55.0,29.68,SE,135,0.0,8.0,100,0.13,,,0.36,Weather View 32 v70,2013-01-13 07:45:00,
2013-01-13 02:50:00,55.0,55.0,29.69,South,180,2.0,8.0,100,0.14,,,0.37,Weather View 32 v70,2013-01-13 07:50:00,
2013-01-13 02:55:00,55.0,55.0,29.71,SW,225,1.0,8.0,100,0.12,,,0.37,Weather View 32 v70,2013-01-13 07:55:00,
2013-01-13 03:00:00,55.0,55.0,29.72,SW,225,4.0,7.0,100,0.11,,,0.38,Weather View 32 v70,2013-01-13 08:00:00,
2013-01-13 03:05:00,55.0,55.0,29.72,SSW,202,3.0,7.0,100,0.11,,,0.39,Weather View 32 v70,2013-01-13 08:05:00,
2013-01-13 03:10:00,55.0,55.0,29.73,SSE,157,6.0,7.0,100,0.11,,,0.41,Weather View 32 v70,2013-01-13 08:10:00,
2013-01-13 03:20:00,55.0,55.0,29.73,South,180,0.0,7.0,100,0.12,,,0.43,Weather View 32 v70,2013-01-13 08:20:00,
2013-01-13 03:25:00,55.0,55.0,29.73,West,270,5.0,8.0,100,0.12,,,0.45,Weather View 32 v70,2013-01-13 08:25:00,
2013-01-13 03:30:00,55.0,55.0,29.74,West,270,7.0,12.0,100,0.12,,,0.47,Weather View 32 v70,2013-01-13 08:30:00,
2013-01-13 03:35:00,54.0,54.0,29.75,WNW,292,5.0,13.0,100,0.14,,,0.49,Weather View 32 v70,2013-01-13 08:35:00,
2013-01-13 03:40:00,53.0,53.0,29.75,West,270,6.0,13.0,100,0.15,,,0.51,Weather View 32 v70,2013-01-13 08:40:00,
2013-01-13 03:45:00,53.0,53.0,29.75,West,270,2.0,13.0,100,0.16,,,0.52,Weather View 32 v70,2013-01-13 08:45:00,
2013-01-13 03:50:00,52.0,52.0,29.74,West,270,7.0,13.0,100,0.16,,,0.53,Weather View 32 v70,2013-01-13 08:50:00,
2013-01-13 03:55:00,52.0,52.0,29.73,West,270,7.0,13.0,100,0.17,,,0.54,Weather View 32 v70,2013-01-13 08:55:00,
2013-01-13 04:00:00,51.0,51.0,29.74,WNW,292,4.0,13.0,100,0.17,,,0.55,Weather View 32 v70,2013-01-13 09:00:00,
2013-01-13 04:05:00,49.0,49.0,29.75,West,270,10.0,13.0,100,0.17,,,0.56,Weather View 32 v70,2013-01-13 09:05:00,
2013-01-13 04:15:00,48.0,48.0,29.73,West,270,4.0,13.0,100,0.13,,,0.56,Weather View 32 v70,2013-01-13 09:15:00,
2013-01-13 04:20:00,47.0,47.0,29.73,WNW,292,3.0,13.0,100,0.13,,,0.57,Weather View 32 v70,2013-01-13 09:20:00,
2013-01-13 04:30:00,46.0,46.0,29.72,NW,315,2.0,13.0,100,0.11,,,0.58,Weather View 32 v70,2013-01-13 09:30:00,
2013-01-13 04:35:00,46.0,46.0,29.72,NNW,337,0.0,13.0,100,0.10,,,0.59,Weather View 32 v70,2013-01-13 09:35:00,
2013-01-13 04:40:00,46.0,46.0,29.72,West,270,5.0,13.0,100,0.10,,,0.61,Weather View 32 v70,2013-01-13 09:40:00,
2013-01-13 04:45:00,45.0,45.0,29.73,West,270,5.0,13.0,100,0.10,,,0.62,Weather View 32 v70,2013-01-13 09:45:00,
2013-01-13 04:50:00,45.0,45.0,29.76,WSW,247,3.0,13.0,100,0.10,,,0.63,Weather View 32 v70,2013-01-13 09:50:00,
2013-01-13 05:00:00,44.0,44.0,29.77,West,270,6.0,13.0,100,0.11,,,0.66,Weather View 32 v70,2013-01-13 10:00:00,
2013-01-13 05:05:00,44.0,44.0,29.77,North,360,6.0,11.0,100,0.11,,,0.67,Weather View 32 v70,2013-01-13 10:05:00,
2013-01-13 05:10:00,44.0,44.0,29.77,WNW,292,0.0,11.0,100,0.13,,,0.69,Weather View 32 v70,2013-01-13 10:10:00,
2013-01-13 05:15:00,44.0,44.0,29.76,North,360,4.0,11.0,100,0.14,,,0.70,Weather View 32 v70,2013-01-13 10:15:00,
2013-01-13 05:20:00,43.0,43.0,29.74,ENE,67,4.0,11.0,100,0.14,,,0.71,Weather View 32 v70,2013-01-13 10:20:00,
2013-01-13 05:25:00,43.0,43.0,29.73,East,90,0.0,11.0,100,0.15,,,0.72,Weather View 32 v70,2013-01-13 10:25:00,
2013-01-13 05:30:00,43.0,43.0,29.74,East,90,0.0,11.0,100,0.15,,,0.73,Weather View 32 v70,2013-01-13 10:30:00,
2013-01-13 05:35:00,43.0,43.0,29.75,East,90,0.0,11.0,100,0.15,,,0.74,Weather View 32 v70,2013-01-13 10:35:00,
2013-01-13 05:40:00,43.0,43.0,29.75,East,90,0.0,11.0,100,0.14,,,0.75,Weather View 32 v70,2013-01-13 10:40:00,
2013-01-13 05:45:00,43.0,43.0,29.74,SE,135,1.0,11.0,100,0.15,,,0.77,Weather View 32 v70,2013-01-13 10:45:00,
2013-01-13 05:50:00,43.0,43.0,29.74,SE,135,0.0,11.0,100,0.15,,,0.78,Weather View 32 v70,2013-01-13 10:50:00,
2013-01-13 06:00:00,43.0,43.0,29.75,West,270,4.0,10.0,100,0.15,,,0.81,Weather View 32 v70,2013-01-13 11:00:00,
2013-01-13 06:05:00,43.0,43.0,29.77,WNW,292,2.0,9.0,100,0.15,,,0.82,Weather View 32 v70,2013-01-13 11:05:00,
2013-01-13 06:10:00,43.0,43.0,29.77,West,270,2.0,8.0,100,0.14,,,0.83,Weather View 32 v70,2013-01-13 11:10:00,
2013-01-13 06:15:00,43.0,43.0,29.77,West,270,2.0,8.0,100,0.14,,,0.84,Weather View 32 v70,2013-01-13 11:15:00,
2013-01-13 06:20:00,43.0,43.0,29.75,NNE,22,1.0,8.0,100,0.14,,,0.85,Weather View 32 v70,2013-01-13 11:20:00,
2013-01-13 06:25:00,43.0,43.0,29.75,NNE,22,0.0,8.0,100,0.15,,,0.87,Weather View 32 v70,2013-01-13 11:25:00,
2013-01-13 06:30:00,43.0,43.0,29.75,East,90,1.0,8.0,100,0.16,,,0.89,Weather View 32 v70,2013-01-13 11:30:00,
2013-01-13 06:35:00,43.0,43.0,29.75,SE,135,0.0,8.0,100,0.16,,,0.90,Weather View 32 v70,2013-01-13 11:35:00,
2013-01-13 06:40:00,43.0,43.0,29.75,SSE,157,1.0,8.0,100,0.16,,,0.91,Weather View 32 v70,2013-01-13 11:40:00,
2013-01-13 06:45:00,43.0,43.0,29.74,SE,135,4.0,8.0,100,0.16,,,0.93,Weather View 32 v70,2013-01-13 11:45:00,
2013-01-13 06:50:00,43.0,43.0,29.73,SE,135,5.0,8.0,100,0.15,,,0.93,Weather View 32 v70,2013-01-13 11:50:00,
2013-01-13 07:00:00,43.0,43.0,29.76,NW,315,5.0,8.0,100,0.13,,,0.94,Weather View 32 v70,2013-01-13 12:00:00,
2013-01-13 07:05:00,43.0,43.0,29.78,West,270,7.0,11.0,100,0.13,,,0.95,Weather View 32 v70,2013-01-13 12:05:00,
2013-01-13 07:10:00,43.0,43.0,29.76,WNW,292,5.0,11.0,100,0.13,,,0.96,Weather View 32 v70,2013-01-13 12:10:00,
2013-01-13 07:15:00,43.0,43.0,29.78,WSW,247,5.0,11.0,100,0.13,,,0.97,Weather View 32 v70,2013-01-13 12:15:00,
2013-01-13 07:20:00,43.0,43.0,29.77,WNW,292,3.0,11.0,100,0.12,,,0.97,Weather View 32 v70,2013-01-13 12:20:00,
2013-01-13 07:25:00,42.0,42.0,29.77,West,270,0.0,11.0,100,0.10,,,0.97,Weather View 32 v70,2013-01-13 12:25:00,
2013-01-13 07:30:00,42.0,42.0,29.75,SE,135,0.0,11.0,100,0.08,,,0.97,Weather View 32 v70,2013-01-13 12:30:00,
2013-01-13 07:35:00,42.0,42.0,29.75,ESE,112,3.0,11.0,100,0.07,,,0.97,Weather View 32 v70,2013-01-13 12:35:00,
2013-01-13 07:40:00,42.0,42.0,29.73,SE,135,2.0,11.0,100,0.07,,,0.98,Weather View 32 v70,2013-01-13 12:40:00,
2013-01-13 07:45:00,42.0,42.0,29.74,ESE,112,2.0,11.0,100,0.05,,,0.98,Weather View 32 v70,2013-01-13 12:45:00,
2013-01-13 07:55:00,42.0,42.0,29.73,North,360,4.0,11.0,100,0.05,,,0.99,Weather View 32 v70,2013-01-13 12:55:00,
2013-01-13 08:00:00,43.0,43.0,29.73,WNW,292,8.0,11.0,100,0.06,,,1.00,Weather View 32 v70,2013-01-13 13:00:00,
2013-01-13 08:05:00,43.0,43.0,29.78,West,270,7.0,12.0,100,0.05,,,1.00,Weather View 32 v70,2013-01-13 13:05:00,
2013-01-13 08:10:00,42.0,42.0,29.78,West,270,6.0,12.0,100,0.04,,,1.00,Weather View 32 v70,2013-01-13 13:10:00,
2013-01-13 08:15:00,42.0,42.0,29.79,NW,315,3.0,12.0,100,0.03,,,1.00,Weather View 32 v70,2013-01-13 13:15:00,
2013-01-13 08:20:00,42.0,42.0,29.79,West,270,5.0,12.0,100,0.03,,,1.00,Weather View 32 v70,2013-01-13 13:20:00,
2013-01-13 08:25:00,42.0,42.0,29.80,West,270,2.0,12.0,100,0.03,,,1.00,Weather View 32 v70,2013-01-13 13:25:00,
2013-01-13 08:30:00,42.0,42.0,29.79,North,360,1.0,12.0,100,0.03,,,1.00,Weather View 32 v70,2013-01-13 13:30:00,
2013-01-13 08:40:00,41.0,41.0,29.75,North,360,5.0,12.0,100,0.02,,,1.00,Weather View 32 v70,2013-01-13 13:40:00,
2013-01-13 08:45:00,41.0,41.0,29.77,NW,315,4.0,12.0,100,0.02,,,1.00,Weather View 32 v70,2013-01-13 13:45:00,
2013-01-13 08:50:00,41.0,41.0,29.79,NW,315,2.0,12.0,100,0.01,,,1.00,Weather View 32 v70,2013-01-13 13:50:00,
2013-01-13 08:55:00,41.0,41.0,29.80,NW,315,2.0,12.0,100,0.01,,,1.00,Weather View 32 v70,2013-01-13 13:55:00,
2013-01-13 09:00:00,41.0,41.0,29.81,NW,315,3.0,12.0,100,0.00,,,1.00,Weather View 32 v70,2013-01-13 14:00:00,
2013-01-13 09:05:00,41.0,41.0,29.81,WNW,292,2.0,12.0,100,0.00,,,1.00,Weather View 32 v70,2013-01-13 14:05:00,
2013-01-13 09:10:00,41.0,41.0,29.82,NW,315,4.0,10.0,100,0.00,,,1.00,Weather View 32 v70,2013-01-13 14:10:00,
2013-01-13 09:15:00,41.0,41.0,29.82,NW,315,3.0,10.0,100,0.00,,,1.00,Weather View 32 v70,2013-01-13 14:15:00,
2013-01-13 09:23:00,40.0,40.0,29.81,North,360,2.0,10.0,100,0.00,,,1.00,Weather View 32 v70,2013-01-13 14:23:00,
2013-01-13 09:30:00,40.0,40.0,29.81,North,360,8.0,10.0,100,0.00,,,1.00,Weather View 32 v70,2013-01-13 14:30:00,
2013-01-13 09:35:00,40.0,40.0,29.81,North,360,7.0,10.0,100,0.00,,,1.00,Weather View 32 v70,2013-01-13 14:35:00,
2013-01-13 09:45:00,40.0,40.0,29.80,NNW,337,3.0,10.0,100,0.00,,,1.00,Weather View 32 v70,2013-01-13 14:45:00,
2013-01-13 09:50:00,40.0,40.0,29.80,North,360,2.0,10.0,100,0.00,,,1.00,Weather View 32 v70,2013-01-13 14:50:00,
2013-01-13 09:55:00,40.0,40.0,29.81,NW,315,2.0,10.0,100,0.00,,,1.00,Weather View 32 v70,2013-01-13 14:55:00,
2013-01-13 10:05:00,40.0,40.0,29.81,North,360,3.0,10.0,100,0.00,,,1.00,Weather View 32 v70,2013-01-13 15:05:00,
2013-01-13 10:10:00,40.0,40.0,29.82,NW,315,7.0,10.0,100,0.00,,,1.00,Weather View 32 v70,2013-01-13 15:10:00,
2013-01-13 10:15:00,40.0,40.0,29.81,NW,315,4.0,9.0,100,0.00,,,1.00,Weather View 32 v70,2013-01-13 15:15:00,
2013-01-13 10:23:00,40.0,40.0,29.80,North,360,4.0,9.0,100,0.00,,,1.00,Weather View 32 v70,2013-01-13 15:23:00,
2013-01-13 10:30:00,40.0,40.0,29.79,North,360,0.0,9.0,100,0.00,,,1.00,Weather View 32 v70,2013-01-13 15:30:00,
2013-01-13 10:35:00,40.0,40.0,29.81,North,360,2.0,9.0,100,0.00,,,1.00,Weather View 32 v70,2013-01-13 15:35:00,
2013-01-13 10:45:00,40.0,40.0,29.81,North,360,2.0,9.0,100,0.00,,,1.00,Weather View 32 v70,2013-01-13 15:45:00,
2013-01-13 10:50:00,40.0,40.0,29.81,North,360,3.0,9.0,100,0.00,,,1.00,Weather View 32 v70,2013-01-13 15:50:00,
2013-01-13 10:55:00,40.0,40.0,29.80,North,360,5.0,9.0,100,0.00,,,1.00,Weather View 32 v70,2013-01-13 15:55:00,
2013-01-13 11:00:00,40.0,40.0,29.80,NW,315,3.0,9.0,100,0.00,,,1.00,Weather View 32 v70,2013-01-13 16:00:00,
2013-01-13 11:10:00,40.0,40.0,29.81,NW,315,4.0,9.0,100,0.00,,,1.00,Weather View 32 v70,2013-01-13 16:10:00,
2013-01-13 11:15:00,40.0,40.0,29.81,NW,315,4.0,9.0,100,0.00,,,1.00,Weather View 32 v70,2013-01-13 16:15:00,
2013-01-13 11:20:00,40.0,40.0,29.81,WNW,292,0.0,8.0,100,0.00,,,1.00,Weather View 32 v70,2013-01-13 16:20:00,
2013-01-13 11:30:00,40.0,40.0,29.81,WNW,292,1.0,8.0,100,0.00,,,1.00,Weather View 32 v70,2013-01-13 16:30:00,
2013-01-13 11:35:00,40.0,40.0,29.81,WNW,292,6.0,8.0,100,0.00,,,1.00,Weather View 32 v70,2013-01-13 16:35:00,
2013-01-13 11:40:00,40.0,40.0,29.81,North,360,0.0,8.0,100,0.00,,,1.00,Weather View 32 v70,2013-01-13 16:40:00,
2013-01-13 11:50:00,40.0,40.0,29.81,West,270,7.0,9.0,100,0.00,,,1.00,Weather View 32 v70,2013-01-13 16:50:00,
2013-01-13 11:55:00,40.0,40.0,29.81,WNW,292,2.0,9.0,100,0.01,,,1.01,Weather View 32 v70,2013-01-13 16:55:00,
2013-01-13 12:00:00,40.0,40.0,29.81,NW,315,3.0,9.0,100,0.01,,,1.01,Weather View 32 v70,2013-01-13 17:00:00,
2013-01-13 12:10:00,39.0,39.0,29.81,NNW,337,4.0,9.0,100,0.02,,,1.02,Weather View 32 v70,2013-01-13 17:10:00,
2013-01-13 12:15:00,39.0,39.0,29.79,North,360,9.0,10.0,100,0.05,,,1.05,Weather View 32 v70,2013-01-13 17:15:00,
2013-01-13 12:20:00,39.0,39.0,29.78,NNW,337,3.0,10.0,100,0.06,,,1.06,Weather View 32 v70,2013-01-13 17:20:00,
2013-01-13 12:30:00,39.0,39.0,29.78,South,180,2.0,10.0,100,0.08,,,1.08,Weather View 32 v70,2013-01-13 17:30:00,
2013-01-13 12:35:00,39.0,39.0,29.78,NW,315,2.0,10.0,100,0.08,,,1.08,Weather View 32 v70,2013-01-13 17:35:00,
2013-01-13 12:40:00,39.0,39.0,29.77,North,360,0.0,10.0,100,0.08,,,1.08,Weather View 32 v70,2013-01-13 17:40:00,
2013-01-13 12:45:00,39.0,39.0,29.77,North,360,0.0,10.0,100,0.09,,,1.09,Weather View 32 v70,2013-01-13 17:45:00,
2013-01-13 12:55:00,39.0,39.0,29.76,North,360,5.0,10.0,100,0.09,,,1.10,Weather View 32 v70,2013-01-13 17:55:00,
2013-01-13 13:00:00,39.0,39.0,29.75,North,360,1.0,10.0,100,0.10,,,1.11,Weather View 32 v70,2013-01-13 18:00:00,
2013-01-13 13:05:00,39.0,39.0,29.75,North,360,1.0,10.0,100,0.12,,,1.13,Weather View 32 v70,2013-01-13 18:05:00,
2013-01-13 13:10:00,39.0,39.0,29.75,NE,45,2.0,10.0,100,0.11,,,1.13,Weather View 32 v70,2013-01-13 18:10:00,
2013-01-13 13:20:00,39.0,39.0,29.74,NNE,22,0.0,6.0,100,0.09,,,1.15,Weather View 32 v70,2013-01-13 18:20:00,
2013-01-13 13:25:00,39.0,39.0,29.74,NNW,337,0.0,6.0,100,0.07,,,1.15,Weather View 32 v70,2013-01-13 18:25:00,
2013-01-13 13:35:00,39.0,39.0,29.75,NNW,337,2.0,6.0,100,0.10,,,1.18,Weather View 32 v70,2013-01-13 18:35:00,
2013-01-13 13:40:00,39.0,39.0,29.75,NW,315,6.0,6.0,100,0.12,,,1.20,Weather View 32 v70,2013-01-13 18:40:00,
2013-01-13 13:45:00,39.0,39.0,29.78,West,270,5.0,12.0,100,0.12,,,1.21,Weather View 32 v70,2013-01-13 18:45:00,
2013-01-13 13:50:00,39.0,39.0,29.79,WNW,292,6.0,12.0,100,0.15,,,1.24,Weather View 32 v70,2013-01-13 18:50:00,
2013-01-13 14:00:00,39.0,39.0,29.79,West,270,6.0,12.0,100,0.16,,,1.27,Weather View 32 v70,2013-01-13 19:00:00,
2013-01-13 14:05:00,39.0,39.0,29.79,NNW,337,3.0,12.0,100,0.15,,,1.28,Weather View 32 v70,2013-01-13 19:05:00,
2013-01-13 14:10:00,39.0,39.0,29.78,WSW,247,6.0,12.0,100,0.16,,,1.29,Weather View 32 v70,2013-01-13 19:10:00,
2013-01-13 14:20:00,38.0,38.0,29.79,West,270,6.0,12.0,100,0.17,,,1.32,Weather View 32 v70,2013-01-13 19:20:00,
2013-01-13 14:25:00,38.0,38.0,29.79,West,270,3.0,12.0,100,0.19,,,1.34,Weather View 32 v70,2013-01-13 19:25:00,
2013-01-13 14:30:00,38.0,38.0,29.81,NW,315,2.0,13.0,100,0.21,,,1.37,Weather View 32 v70,2013-01-13 19:30:00,
2013-01-13 14:35:00,37.0,37.0,29.81,West,270,7.0,13.0,100,0.21,,,1.39,Weather View 32 v70,2013-01-13 19:35:00,
2013-01-13 14:45:00,36.0,36.0,29.81,WSW,247,7.0,14.0,100,0.21,,,1.42,Weather View 32 v70,2013-01-13 19:45:00,
2013-01-13 14:50:00,36.0,36.0,29.83,NW,315,5.0,14.0,100,0.20,,,1.44,Weather View 32 v70,2013-01-13 19:50:00,
2013-01-13 14:55:00,35.0,35.0,29.81,North,360,10.0,14.0,100,0.21,,,1.47,Weather View 32 v70,2013-01-13 19:55:00,
2013-01-13 15:05:00,35.0,35.0,29.79,WNW,292,8.0,14.0,100,0.20,,,1.48,Weather View 32 v70,2013-01-13 20:05:00,
2013-01-13 15:10:00,34.0,34.0,29.81,West,270,9.0,14.0,100,0.20,,,1.49,Weather View 32 v70,2013-01-13 20:10:00,
2013-01-13 15:15:00,34.0,34.0,29.82,West,270,3.0,14.0,100,0.18,,,1.49,Weather View 32 v70,2013-01-13 20:15:00,
2013-01-13 15:20:00,34.0,34.0,29.82,NW,315,6.0,14.0,100,0.18,,,1.50,Weather View 32 v70,2013-01-13 20:20:00,
2013-01-13 15:26:00,34.0,34.0,29.83,West,270,12.0,14.0,100,0.17,,,1.51,Weather View 32 v70,2013-01-13 20:26:00,
2013-01-13 15:35:00,34.0,34.0,29.81,North,360,6.0,14.0,100,0.14,,,1.53,Weather View 32 v70,2013-01-13 20:35:00,
2013-01-13 15:40:00,33.0,33.0,29.80,WNW,292,7.0,14.0,100,0.14,,,1.54,Weather View 32 v70,2013-01-13 20:40:00,
2013-01-13 15:50:00,33.0,33.0,29.80,North,360,7.0,13.0,100,0.12,,,1.56,Weather View 32 v70,2013-01-13 20:50:00,
2013-01-13 15:55:00,33.0,33.0,29.82,NW,315,4.0,13.0,100,0.09,,,1.56,Weather View 32 v70,2013-01-13 20:55:00,
2013-01-13 16:00:00,33.0,33.0,29.81,NW,315,1.0,13.0,100,0.10,,,1.57,Weather View 32 v70,2013-01-13 21:00:00,
2013-01-13 16:05:00,33.0,33.0,29.82,North,360,2.0,13.0,100,0.09,,,1.57,Weather View 32 v70,2013-01-13 21:05:00,
2013-01-13 16:15:00,33.0,33.0,29.82,WNW,292,4.0,13.0,100,0.08,,,1.57,Weather View 32 v70,2013-01-13 21:15:00,
2013-01-13 16:20:00,33.0,33.0,29.84,West,270,4.0,13.0,100,0.07,,,1.57,Weather View 32 v70,2013-01-13 21:20:00,
2013-01-13 16:25:00,33.0,33.0,29.84,North,360,4.0,13.0,100,0.06,,,1.57,Weather View 32 v70,2013-01-13 21:25:00,
2013-01-13 16:35:00,33.0,33.0,29.84,NW,315,7.0,10.0,100,0.05,,,1.58,Weather View 32 v70,2013-01-13 21:35:00,
2013-01-13 16:40:00,33.0,33.0,29.84,WNW,292,3.0,10.0,100,0.04,,,1.58,Weather View 32 v70,2013-01-13 21:40:00,
2013-01-13 16:45:00,33.0,33.0,29.85,NW,315,3.0,10.0,100,0.03,,,1.58,Weather View 32 v70,2013-01-13 21:45:00,
2013-01-13 16:55:00,33.0,33.0,29.86,NW,315,2.0,10.0,100,0.02,,,1.58,Weather View 32 v70,2013-01-13 21:55:00,
2013-01-13 17:00:00,33.0,33.0,29.86,NNW,337,6.0,10.0,100,0.02,,,1.59,Weather View 32 v70,2013-01-13 22:00:00,
2013-01-13 17:05:00,33.0,33.0,29.87,West,270,6.0,10.0,100,0.02,,,1.59,Weather View 32 v70,2013-01-13 22:05:00,
2013-01-13 17:10:00,33.0,33.0,29.89,NW,315,10.0,10.0,100,0.02,,,1.59,Weather View 32 v70,2013-01-13 22:10:00,
2013-01-13 17:20:00,33.0,33.0,29.88,WNW,292,4.0,13.0,100,0.03,,,1.60,Weather View 32 v70,2013-01-13 22:20:00,
2013-01-13 17:25:00,33.0,33.0,29.88,NNW,337,3.0,13.0,100,0.04,,,1.61,Weather View 32 v70,2013-01-13 22:25:00,
2013-01-13 17:30:00,33.0,33.0,29.88,North,360,7.0,13.0,100,0.04,,,1.61,Weather View 32 v70,2013-01-13 22:30:00,
2013-01-13 17:35:00,33.0,33.0,29.86,NW,315,5.0,13.0,100,0.04,,,1.62,Weather View 32 v70,2013-01-13 22:35:00,
2013-01-13 17:45:00,33.0,33.0,29.87,NNW,337,7.0,13.0,100,0.04,,,1.62,Weather View 32 v70,2013-01-13 22:45:00,
2013-01-13 17:50:00,33.0,33.0,29.88,West,270,5.0,13.0,100,0.04,,,1.62,Weather View 32 v70,2013-01-13 22:50:00,
2013-01-13 18:00:00,32.0,32.0,29.90,NNW,337,9.0,13.0,100,0.03,,,1.62,Weather View 32 v70,2013-01-13 23:00:00,
2013-01-13 18:05:00,32.0,32.0,29.91,WSW,247,7.0,13.0,100,0.03,,,1.62,Weather View 32 v70,2013-01-13 23:05:00,
2013-01-13 18:10:00,32.0,32.0,29.90,West,270,4.0,13.0,100,0.03,,,1.62,Weather View 32 v70,2013-01-13 23:10:00,
2013-01-13 18:15:00,32.0,32.0,29.92,NW,315,4.0,13.0,100,0.02,,,1.62,Weather View 32 v70,2013-01-13 23:15:00,
2013-01-13 18:25:00,32.0,32.0,29.92,NW,315,2.0,12.0,100,0.01,,,1.62,Weather View 32 v70,2013-01-13 23:25:00,
2013-01-13 18:30:00,32.0,32.0,29.93,NW,315,3.0,12.0,100,0.01,,,1.62,Weather View 32 v70,2013-01-13 23:30:00,
2013-01-13 18:35:00,32.0,32.0,29.92,NW,315,3.0,10.0,100,0.00,,,1.62,Weather View 32 v70,2013-01-13 23:35:00,
2013-01-13 18:45:00,32.0,32.0,29.93,West,270,2.0,10.0,100,0.00,,,1.62,Weather View 32 v70,2013-01-13 23:45:00,
2013-01-13 18:50:00,32.0,32.0,29.94,WNW,292,6.0,10.0,100,0.00,,,1.62,Weather View 32 v70,2013-01-13 23:50:00,
2013-01-13 18:55:00,32.0,32.0,29.94,NW,315,6.0,10.0,100,0.00,,,1.62,Weather View 32 v70,2013-01-13 23:55:00,
2013-01-13 19:00:00,32.0,32.0,29.94,WNW,292,7.0,10.0,100,0.00,,,1.62,Weather View 32 v70,2013-01-14 00:00:00,
2013-01-13 19:10:00,32.0,32.0,29.94,West,270,4.0,11.0,100,0.00,,,1.62,Weather View 32 v70,2013-01-14 00:10:00,
2013-01-13 19:15:00,32.0,32.0,29.94,West,270,8.0,13.0,100,0.00,,,1.62,Weather View 32 v70,2013-01-14 00:15:00,
2013-01-13 19:25:00,32.0,32.0,29.95,WNW,292,3.0,13.0,100,0.00,,,1.62,Weather View 32 v70,2013-01-14 00:25:00,
2013-01-13 19:30:00,31.0,31.0,29.95,West,270,8.0,13.0,100,0.00,,,1.62,Weather View 32 v70,2013-01-14 00:30:00,
2013-01-13 19:35:00,31.0,31.0,29.95,WNW,292,7.0,13.0,100,0.00,,,1.62,Weather View 32 v70,2013-01-14 00:35:00,
2013-01-13 19:40:00,31.0,31.0,29.95,West,270,7.0,13.0,100,0.00,,,1.62,Weather View 32 v70,2013-01-14 00:40:00,
2013-01-13 19:50:00,30.0,30.0,29.96,WNW,292,6.0,13.0,100,0.00,,,1.62,Weather View 32 v70,2013-01-14 00:50:00,
2013-01-13 19:55:00,30.0,30.0,29.96,NW,315,7.0,13.0,100,0.00,,,1.62,Weather View 32 v70,2013-01-14 00:55:00,
2013-01-13 20:05:00,30.0,30.0,29.97,West,270,3.0,15.0,100,0.00,,,1.62,Weather View 32 v70,2013-01-14 01:05:00,
2013-01-13 20:10:00,30.0,30.0,29.97,West,270,6.0,15.0,100,0.00,,,1.62,Weather View 32 v70,2013-01-14 01:10:00,
2013-01-13 20:15:00,30.0,30.0,29.97,West,270,1.0,15.0,100,0.00,,,1.62,Weather View 32 v70,2013-01-14 01:15:00,
2013-01-13 20:25:00,30.0,30.0,29.97,West,270,6.0,15.0,100,0.00,,,1.62,Weather View 32 v70,2013-01-14 01:25:00,
2013-01-13 20:30:00,29.0,29.0,29.97,West,270,6.0,16.0,100,0.00,,,1.62,Weather View 32 v70,2013-01-14 01:30:00,
2013-01-13 20:35:00,29.0,29.0,29.98,West,270,6.0,16.0,100,0.00,,,1.62,Weather View 32 v70,2013-01-14 01:35:00,
2013-01-13 20:40:00,29.0,29.0,29.98,West,270,3.0,16.0,100,0.00,,,1.62,Weather View 32 v70,2013-01-14 01:40:00,
2013-01-13 20:50:00,29.0,29.0,29.98,West,270,8.0,16.0,100,0.00,,,1.62,Weather View 32 v70,2013-01-14 01:50:00,
2013-01-13 20:55:00,29.0,29.0,29.98,West,270,8.0,16.0,100,0.00,,,1.62,Weather View 32 v70,2013-01-14 01:55:00,
2013-01-13 21:00:00,29.0,29.0,29.98,West,270,5.0,16.0,100,0.00,,,1.62,Weather View 32 v70,2013-01-14 02:00:00,
2013-01-13 21:10:00,29.0,29.0,29.99,West,270,9.0,16.0,100,0.00,,,1.62,Weather View 32 v70,2013-01-14 02:10:00,
2013-01-13 21:15:00,29.0,29.0,29.99,West,270,1.0,16.0,100,0.00,,,1.62,Weather View 32 v70,2013-01-14 02:15:00,
2013-01-13 21:20:00,29.0,29.0,29.99,West,270,3.0,16.0,100,0.00,,,1.62,Weather View 32 v70,2013-01-14 02:20:00,
2013-01-13 21:25:00,28.0,28.0,29.99,West,270,6.0,16.0,100,0.00,,,1.62,Weather View 32 v70,2013-01-14 02:25:00,
2013-01-13 21:35:00,28.0,28.0,30.00,West,270,3.0,15.0,100,0.00,,,1.62,Weather View 32 v70,2013-01-14 02:35:00,
2013-01-13 21:40:00,28.0,28.0,30.01,West,270,1.0,15.0,100,0.00,,,1.62,Weather View 32 v70,2013-01-14 02:40:00,
2013-01-13 21:45:00,27.0,27.0,30.01,West,270,10.0,15.0,100,0.00,,,1.62,Weather View 32 v70,2013-01-14 02:45:00,
2013-01-13 21:55:00,27.0,27.0,30.01,West,270,6.0,15.0,100,0.00,,,1.62,Weather View 32 v70,2013-01-14 02:55:00,
2013-01-13 22:00:00,27.0,27.0,30.01,West,270,1.0,15.0,100,0.00,,,1.62,Weather View 32 v70,2013-01-14 03:00:00,
2013-01-13 22:10:00,27.0,27.0,30.02,West,270,5.0,13.0,100,0.00,,,1.62,Weather View 32 v70,2013-01-14 03:10:00,
2013-01-13 22:15:00,27.0,27.0,30.02,West,270,1.0,12.0,100,0.00,,,1.62,Weather View 32 v70,2013-01-14 03:15:00,
2013-01-13 22:20:00,27.0,27.0,30.03,West,270,2.0,12.0,100,0.00,,,1.62,Weather View 32 v70,2013-01-14 03:20:00,
2013-01-13 22:25:00,27.0,27.0,30.04,West,270,5.0,12.0,100,0.00,,,1.62,Weather View 32 v70,2013-01-14 03:25:00,
2013-01-13 22:30:00,27.0,27.0,30.04,West,270,6.0,12.0,100,0.00,,,1.62,Weather View 32 v70,2013-01-14 03:30:00,
2013-01-13 22:40:00,26.0,26.0,30.05,West,270,6.0,12.0,100,0.00,,,1.62,Weather View 32 v70,2013-01-14 03:40:00,
2013-01-13 22:45:00,26.0,26.0,30.05,West,270,1.0,12.0,100,0.00,,,1.62,Weather View 32 v70,2013-01-14 03:45:00,
2013-01-13 22:55:00,26.0,26.0,30.05,West,270,3.0,12.0,100,0.00,,,1.62,Weather View 32 v70,2013-01-14 03:55:00,
2013-01-13 23:00:00,26.0,26.0,30.05,West,270,3.0,12.0,100,0.00,,,1.62,Weather View 32 v70,2013-01-14 04:00:00,
2013-01-13 23:05:00,26.0,26.0,30.05,West,270,1.0,12.0,100,0.00,,,1.62,Weather View 32 v70,2013-01-14 04:05:00,
2013-01-13 23:15:00,26.0,26.0,30.06,West,270,6.0,12.0,100,0.00,,,1.62,Weather View 32 v70,2013-01-14 04:15:00,
2013-01-13 23:20:00,26.0,26.0,30.07,West,270,6.0,12.0,100,0.00,,,1.62,Weather View 32 v70,2013-01-14 04:20:00,
2013-01-13 23:25:00,26.0,26.0,30.07,West,270,6.0,12.0,100,0.00,,,1.62,Weather View 32 v70,2013-01-14 04:25:00,
2013-01-13 23:30:00,26.0,26.0,30.07,West,270,3.0,12.0,100,0.00,,,1.62,Weather View 32 v70,2013-01-14 04:30:00,
2013-01-13 23:40:00,26.0,26.0,30.07,West,270,5.0,12.0,100,0.00,,,1.62,Weather View 32 v70,2013-01-14 04:40:00,
2013-01-13 23:45:00,25.0,25.0,30.07,West,270,3.0,12.0,100,0.00,,,1.62,Weather View 32 v70,2013-01-14 04:45:00,
2013-01-13 23:50:00,25.0,25.0,30.08,West,270,2.0,12.0,100,0.00,,,1.62,Weather View 32 v70,2013-01-14 04:50:00,